Latest Weather Observations for Clermont Airport

IDQ60801

Issued at 5:35 pm EST Wednesday 23 July 2014 (issued every 30 minutes, with the page automatically refreshed every 10 minutes)

About weather observations | Map of weather stations | Latest weather observations for QLD | Other Formats
Station Details ID: 035124 Name: CLERMONT AIRPORT Lat: -22.78 Lon: 147.62 Height: 270.27 m
Data from the previous 72 hours. | See also: Recent months at Clermont Airport
Date/Time
EST
Temp
°C
App
Temp
°C
Dew
Point
Rel
Hum
%
Delta-T
°C
Wind Press
QNH
hPa
Press
MSL
hPa
Rain
since 9 am
mm
Dir
 
Spd
km/h
Gust
km/h
Spd
kts
Gust
kts
23/05:30pm 22.6 20.1 3.7 29 9.3 ENE 6 13 3 7 1017.3 - 0.0
23/05:00pm 23.7 20.6 3.6 27 9.9 ENE 9 17 5 9 1016.9 1016.6 0.0
23/04:30pm 24.1 21.0 3.4 26 10.2 ENE 9 17 5 9 1016.7 - 0.0
23/04:00pm 24.6 20.8 3.8 26 10.4 E 13 19 7 10 1016.4 1016.1 0.0
23/03:30pm 24.4 21.4 4.2 27 10.1 ESE 9 15 5 8 1016.1 - 0.0
23/03:00pm 24.2 21.2 4.0 27 10.1 E 9 15 5 8 1016.3 1016.0 0.0
23/02:30pm 24.0 21.1 4.4 28 9.8 E 9 19 5 10 1016.7 - 0.0
23/02:00pm 23.8 20.2 3.2 26 10.1 ESE 11 19 6 10 1017.2 1016.9 0.0
23/01:30pm 23.4 20.9 4.9 30 9.3 SE 7 19 4 10 1017.8 - 0.0
23/01:00pm 22.8 20.2 6.1 34 8.6 SE 9 22 5 12 1018.3 1017.9 0.0
23/12:30pm 22.3 19.5 6.9 37 8.0 SSE 11 19 6 10 1019.2 - 0.0
23/12:00pm 21.4 19.4 7.3 40 7.3 NE 7 17 4 9 1019.9 1019.6 0.0
23/11:30am 20.5 18.3 6.1 39 7.3 E 7 15 4 8 1020.7 - 0.0
23/11:00am 20.1 18.1 6.1 40 7.1 ESE 6 11 3 6 1021.0 1020.7 0.0
23/10:30am 18.8 17.0 5.3 41 6.7 SE 4 7 2 4 1021.6 - 0.0
23/10:00am 17.3 15.0 2.9 38 6.7 S 4 7 2 4 1022.2 1021.9 0.0
23/09:30am 15.2 12.6 1.0 38 6.2 S 4 7 2 4 1022.3 - 0.0
23/09:00am 13.1 10.3 -0.2 40 5.6 SSE 4 7 2 4 1022.5 1022.2 0.0
23/08:30am 10.6 7.7 -0.8 45 4.6 SSW 4 6 2 3 1022.2 - 0.0
23/08:00am 8.0 5.9 -1.0 53 3.5 CALM 0 0 0 0 1021.8 1021.6 0.0
23/07:30am 4.4 2.3 -1.0 68 2.0 CALM 0 0 0 0 1021.3 - 0.0
23/07:00am 1.7 -0.6 -2.4 74 1.4 CALM 0 0 0 0 1021.0 1020.7 0.0
23/06:30am 1.6 -0.7 -2.2 76 1.3 CALM 0 0 0 0 1020.7 - 0.0
23/06:00am 2.3 0.0 -2.2 72 1.6 WSW 0 0 0 0 1020.1 1019.8 0.0
23/05:30am 2.1 -0.2 -2.4 72 1.6 CALM 0 0 0 0 1019.8 - 0.0
23/05:00am 2.4 0.1 -2.3 71 1.7 CALM 0 0 0 0 1019.3 1019.0 0.0
23/04:30am 2.5 0.2 -2.2 71 1.7 CALM 0 0 0 0 1019.1 - 0.0
23/04:00am 2.1 -1.0 -3.0 69 1.8 WSW 4 6 2 3 1018.8 1018.5 0.0
23/03:30am 3.2 0.1 -2.5 66 2.0 SSW 4 7 2 4 1018.7 - 0.0
23/03:00am 2.8 0.1 -2.7 67 1.9 SW 2 4 1 2 1018.6 1018.3 0.0
23/02:30am 3.2 -0.2 -2.3 67 2.0 WSW 6 7 3 4 1018.7 - 0.0
23/02:00am 3.6 1.3 -2.1 66 2.0 CALM 0 0 0 0 1018.7 1018.4 0.0
23/01:30am 4.3 2.0 -2.1 63 2.3 CALM 0 0 0 0 1018.8 - 0.0
23/01:00am 5.1 2.1 -2.0 60 2.6 NW 4 6 2 3 1019.1 1018.8 0.0
23/12:30am 4.7 1.7 -1.7 63 2.4 W 4 20 2 11 1019.4 - 0.0
23/12:00am 4.9 1.5 -2.2 60 2.6 WSW 6 6 3 3 1019.1 1018.8 0.0
 
Date/Time
EST
Temp
°C
App
Temp
°C
Dew
Point
Rel
Hum
%
Delta-T
°C
Wind Press
QNH
hPa
Press
MSL
hPa
Rain
since 9 am
mm
Dir
 
Spd
km/h
Gust
km/h
Spd
kts
Gust
kts
22/11:30pm 5.2 2.6 -1.9 60 2.6 SW 2 6 1 3 1019.1 - 0.0
22/11:00pm 5.8 3.6 -1.3 60 2.7 CALM 0 0 0 0 1019.0 1018.7 0.0
22/10:30pm 6.5 4.3 -1.4 57 3.0 CALM 0 2 0 1 1019.2 - 0.0
22/10:00pm 7.1 4.9 -1.8 53 3.4 CALM 0 0 0 0 1019.3 1019.0 0.0
22/09:30pm 7.8 5.6 -1.7 51 3.6 CALM 0 0 0 0 1019.3 - 0.0
22/09:00pm 8.5 6.3 -1.3 50 3.8 CALM 0 0 0 0 1019.4 1019.1 0.0
22/08:30pm 8.8 6.6 -1.6 48 4.0 SW 0 0 0 0 1019.4 - 0.0
22/08:00pm 11.0 8.9 -1.1 43 4.9 CALM 0 0 0 0 1019.2 1018.9 0.0
22/07:30pm 12.1 9.8 -2.1 37 5.6 E 0 0 0 0 1019.0 - 0.0
22/07:00pm 15.0 12.8 -1.5 32 6.8 CALM 0 0 0 0 1018.7 1018.4 0.0
22/06:30pm 16.6 14.3 -2.0 28 7.8 CALM 0 0 0 0 1018.4 - 0.0
22/06:00pm 19.3 17.0 -2.3 23 9.2 CALM 0 0 0 0 1017.9 1017.6 0.0
22/05:30pm 22.4 19.0 -2.3 19 10.8 SE 6 9 3 5 1017.6 - 0.0
22/05:00pm 23.5 19.1 -2.2 18 11.3 S 11 15 6 8 1017.5 1017.2 0.0
22/04:30pm 24.1 20.1 -2.4 17 11.7 S 9 15 5 8 1017.2 - 0.0
22/04:00pm 24.4 20.8 -2.2 17 11.8 S 7 15 4 8 1017.1 1016.8 0.0
22/03:30pm 24.4 19.5 -3.0 16 12.0 S 13 22 7 12 1017.2 - 0.0
22/03:00pm 24.6 21.1 -1.3 18 11.7 SSW 7 13 4 7 1017.2 1016.9 0.0
22/02:30pm 23.8 19.6 -1.2 19 11.3 S 11 20 6 11 1017.6 - 0.0
22/02:00pm 23.9 21.7 0.9 22 10.8 SE 2 7 1 4 1017.9 1017.6 0.0
22/01:30pm 23.3 20.1 1.0 23 10.5 S 7 13 4 7 1018.4 - 0.0
22/01:00pm 22.8 19.2 0.6 23 10.3 SE 9 15 5 8 1019.0 1018.7 0.0
22/12:30pm 22.6 19.0 0.4 23 10.2 E 9 15 5 8 1019.7 - 0.0
22/12:00pm 22.3 19.9 1.9 26 9.6 SSW 4 7 2 4 1020.4 1020.1 0.0
22/11:30am 21.6 19.1 3.8 31 8.7 ESE 6 9 3 5 1021.1 - 0.0
22/11:00am 20.8 19.0 5.2 36 7.8 ESE 4 9 2 5 1021.6 1021.4 0.0
22/10:30am 18.9 18.2 7.0 46 6.1 CALM 0 4 0 2 1022.1 - 0.0
22/10:00am 17.4 16.7 6.9 50 5.3 CALM 0 2 0 1 1022.5 1022.2 0.0
22/09:30am 15.7 14.3 5.6 51 4.9 SE 2 4 1 2 1022.8 - 0.0
22/09:00am 13.3 11.6 1.9 46 5.0 CALM 0 0 0 0 1022.7 1022.4 0.0
22/08:30am 10.3 8.5 1.2 53 3.8 CALM 0 0 0 0 1022.5 - 0.0
22/08:00am 7.1 5.1 -0.1 60 2.8 CALM 0 0 0 0 1022.3 1022.0 0.0
22/07:30am 2.7 0.5 -1.6 73 1.6 CALM 0 0 0 0 1022.1 - 0.0
22/07:00am 1.1 -1.2 -2.1 79 1.2 CALM 0 0 0 0 1021.7 1021.5 0.0
22/06:30am 0.9 -1.4 -2.5 78 1.2 CALM 0 0 0 0 1021.4 - 0.0
22/06:00am 1.0 -1.3 -2.4 78 1.2 CALM 0 0 0 0 1021.0 1020.7 0.0
22/05:30am 1.5 -0.8 -2.3 76 1.3 CALM 0 0 0 0 1020.7 - 0.0
22/05:00am 1.6 -0.7 -2.2 76 1.3 CALM 0 0 0 0 1020.4 1020.1 0.0
22/04:30am 1.9 -0.4 -2.4 73 1.5 CALM 0 0 0 0 1020.1 - 0.0
22/04:00am 2.4 0.2 -1.9 73 1.5 CALM 0 0 0 0 1019.9 1019.6 0.0
22/03:30am 2.4 0.2 -1.9 73 1.5 CALM 0 0 0 0 1020.0 - 0.0
22/03:00am 2.6 0.0 -1.9 72 1.6 W 2 4 1 2 1019.9 1019.6 0.0
22/02:30am 2.9 0.6 -2.0 70 1.8 CALM 0 0 0 0 1020.2 - 0.0
22/02:00am 3.6 1.4 -1.7 68 1.9 CALM 0 0 0 0 1020.2 1019.9 0.0
22/01:30am 3.6 1.4 -1.9 67 2.0 CALM 0 4 0 2 1020.3 - 0.0
22/01:00am 4.3 2.1 -1.7 65 2.2 CALM 0 0 0 0 1020.5 1020.2 0.0
22/12:30am 4.2 2.0 -1.4 67 2.1 CALM 0 2 0 1 1020.6 - 0.0
22/12:00am 4.8 2.7 -1.0 66 2.2 CALM 0 0 0 0 1020.7 1020.4 0.0
 
Date/Time
EST
Temp
°C
App
Temp
°C
Dew
Point
Rel
Hum
%
Delta-T
°C
Wind Press
QNH
hPa
Press
MSL
hPa
Rain
since 9 am
mm
Dir
 
Spd
km/h
Gust
km/h
Spd
kts
Gust
kts
21/11:30pm 5.6 3.4 -1.5 60 2.7 CALM 0 2 0 1 1020.8 - 0.0
21/11:00pm 6.2 4.0 -1.4 58 2.9 CALM 0 0 0 0 1021.0 1020.7 0.0
21/10:30pm 6.7 4.2 -1.0 58 3.0 WNW 2 2 1 1 1021.2 - 0.0
21/10:00pm 7.0 4.3 0.2 62 2.7 WSW 4 6 2 3 1021.3 1021.0 0.0
21/09:30pm 7.5 4.3 -0.2 58 3.0 SSW 6 7 3 4 1021.2 - 0.0
21/09:00pm 8.9 6.8 -0.7 51 3.8 CALM 0 0 0 0 1021.1 1020.8 0.0
21/08:30pm 11.7 9.4 0.2 45 4.8 NNE 2 4 1 2 1021.1 - 0.0
21/08:00pm 11.1 9.0 -0.7 44 4.8 CALM 0 0 0 0 1020.8 1020.5 0.0
21/07:30pm 14.5 11.3 -0.4 36 6.3 S 6 6 3 3 1020.4 - 0.0
21/07:00pm 17.3 14.1 -0.4 30 7.7 S 6 7 3 4 1020.2 1019.9 0.0
21/06:30pm 18.5 14.9 0.6 30 8.0 S 9 11 5 6 1020.1 - 0.0
21/06:00pm 18.3 15.4 1.3 32 7.7 S 6 7 3 4 1019.6 1019.3 0.0
21/05:30pm 21.4 18.9 1.7 27 9.2 SSE 4 6 2 3 1019.0 - 0.0
21/05:00pm 22.6 19.7 1.6 25 9.9 SE 6 9 3 5 1018.5 1018.2 0.0
21/04:30pm 22.9 20.4 1.3 24 10.2 ESE 4 9 2 5 1018.2 - 0.0
21/04:00pm 23.9 22.1 1.5 23 10.6 CALM 0 6 0 3 1018.1 1017.7 0.0
21/03:30pm 23.3 20.2 1.6 24 10.3 S 7 11 4 6 1018.1 - 0.0
21/03:00pm 23.6 20.9 2.4 25 10.2 E 6 13 3 7 1018.2 1017.8 0.0
21/02:30pm 22.6 19.5 1.6 25 9.9 SE 7 15 4 8 1018.5 - 0.0
21/02:00pm 22.4 20.1 2.5 27 9.5 SSE 4 9 2 5 1018.7 1018.4 0.0
21/01:30pm 22.2 19.6 3.3 29 9.2 ESE 6 11 3 6 1019.0 - 0.0
21/01:00pm 21.2 18.9 3.0 30 8.7 SW 4 11 2 6 1019.5 1019.2 0.0
21/12:30pm 21.2 18.4 3.0 30 8.7 S 7 13 4 7 1020.2 - 0.0
21/12:00pm 19.7 16.3 2.1 31 8.2 ESE 9 15 5 8 1020.9 1020.6 0.0
21/11:30am 19.5 16.7 1.9 31 8.2 SE 6 15 3 8 1021.7 - 0.0
21/11:00am 17.6 14.3 0.3 31 7.6 ESE 7 11 4 6 1022.3 1022.0 0.0
21/10:30am 16.3 13.0 -1.3 30 7.4 SSE 6 9 3 5 1022.7 - 0.0
21/10:00am 14.7 11.3 -1.8 32 6.8 SSE 6 9 3 5 1023.0 1022.7 0.0
21/09:30am 13.0 9.6 -2.1 35 6.1 ESE 6 9 3 5 1023.3 - 0.0
21/09:00am 10.3 6.8 -3.0 39 5.1 S 6 7 3 4 1023.5 1023.2 0.0
21/08:30am 7.6 4.8 -3.3 46 4.0 SSW 2 4 1 2 1023.2 - 0.0
21/08:00am 4.6 2.1 -3.6 55 2.9 CALM 0 0 0 0 1023.1 1022.8 0.0
21/07:30am 0.3 -2.3 -5.1 67 1.8 CALM 0 0 0 0 1023.0 - 0.0
21/07:00am -2.2 -4.9 -6.4 73 1.2 CALM 0 0 0 0 1022.6 1022.3 0.0
21/06:30am -1.8 -4.5 -6.2 72 1.3 CALM 0 0 0 0 1022.2 - 0.0
21/06:00am -1.6 -4.4 -6.5 69 1.4 CALM 0 0 0 0 1022.1 1021.8 0.0
21/05:30am -1.2 -4.3 -6.5 67 1.6 SSW 2 4 1 2 1021.5 - 0.0
21/05:00am -1.8 -4.5 -6.3 71 1.3 CALM 0 0 0 0 1021.2 1020.9 0.0
21/04:30am -1.6 -4.3 -6.2 71 1.3 CALM 0 0 0 0 1021.0 - 0.0
21/04:00am -1.6 -4.7 -6.3 70 1.4 NNW 2 7 1 4 1021.0 1020.7 0.0
21/03:30am -1.2 -3.9 -6.1 69 1.5 CALM 0 0 0 0 1020.9 - 0.0
21/03:00am -0.9 -3.6 -6.0 68 1.5 CALM 0 0 0 0 1020.9 1020.6 0.0
21/02:30am -0.5 -3.2 -6.1 66 1.7 CALM 0 0 0 0 1021.1 - 0.0
21/02:00am -0.3 -3.0 -5.9 66 1.7 CALM 0 0 0 0 1021.1 1020.8 0.0
21/01:30am -0.3 -3.0 -5.9 66 1.7 CALM 0 0 0 0 1021.5 - 0.0
21/01:00am -0.1 -2.8 -6.1 64 1.9 CALM 0 0 0 0 1021.5 1021.2 0.0
21/12:30am 0.7 -2.0 -5.7 62 2.1 CALM 0 0 0 0 1021.6 - 0.0
21/12:00am 1.4 -1.2 -5.1 62 2.2 CALM 0 0 0 0 1021.5 1021.2 0.0
 
Date/Time
EST
Temp
°C
App
Temp
°C
Dew
Point
Rel
Hum
%
Delta-T
°C
Wind Press
QNH
hPa
Press
MSL
hPa
Rain
since 9 am
mm
Dir
 
Spd
km/h
Gust
km/h
Spd
kts
Gust
kts
20/11:30pm 1.6 -1.0 -5.3 60 2.3 CALM 0 0 0 0 1021.7 - 0.0
20/11:00pm 2.2 -0.4 -5.0 59 2.5 CALM 0 0 0 0 1021.8 1021.6 0.0
20/10:30pm 2.7 0.1 -4.7 58 2.5 CALM 0 0 0 0 1022.1 - 0.0
20/10:00pm 3.0 0.4 -5.1 55 2.7 CALM 0 0 0 0 1022.2 1021.9 0.0
20/09:30pm 3.9 1.3 -5.3 51 3.1 CALM 0 0 0 0 1022.1 - 0.0
20/09:00pm 4.6 2.0 -5.2 49 3.3 CALM 0 0 0 0 1021.6 1021.4 0.0
20/08:30pm 5.7 3.2 -3.9 50 3.4 CALM 0 0 0 0 1021.6 - 0.0
20/08:00pm 6.3 3.8 -4.2 47 3.7 CALM 0 0 0 0 1021.5 1021.2 0.0
20/07:30pm 7.5 4.6 -3.9 44 4.1 S 2 2 1 1 1021.2 - 0.0
20/07:00pm 8.5 5.1 -5.7 36 5.0 S 4 4 2 2 1021.0 1020.7 0.0
20/06:30pm 12.5 9.1 -5.0 29 6.5 S 4 4 2 2 1020.6 - 0.0
20/06:00pm 16.6 13.6 -5.2 22 8.5 SSE 2 4 1 2 1020.2 1019.9 0.0

Other Formats:

Comma delimited format used in spreadsheet applications
http://www.bom.gov.au/fwo/IDQ60801/IDQ60801.94395.axf

JavaScript Object Notation format (JSON) in row-major order
http://www.bom.gov.au/fwo/IDQ60801/IDQ60801.94395.json